Time;durP1;ratioP1;P1;durP2;ratioP2;P2;SDS_P1;SDS_P2;PMS_P1;PMS_P2;Temp;Humidity;BMP_temperature;BMP_pressure;BME280_temperature;BME280_humidity;BME280_pressure;Samples;Min_cycle;Max_cycle;Signal;HPM_P1;HPM_P2
2023/04/04 00:01:43;;;;;;;;;;;0.60;99.90;;;;;;5032843;28;19925;-64
2023/04/04 00:04:10;;;;;;;;;;;0.50;1.00;;;;;;5030904;28;20303;-64
2023/04/04 00:06:36;;;;;;;;;;;0.50;1.00;;;;;;5030092;28;20009;-61
2023/04/04 00:09:03;;;;;;;;;;;0.50;1.00;;;;;;5030792;28;20388;-64
2023/04/04 00:11:31;;;;;;;;;;;0.40;1.00;;;;;;5029313;28;19925;-64
2023/04/04 00:13:58;;;;;;;;;;;0.50;1.00;;;;;;5032247;28;19932;-64
2023/04/04 00:16:25;;;;;;;;;;;0.50;1.00;;;;;;5028725;28;19932;-62
2023/04/04 00:18:51;;;;;;;;;;;0.40;1.00;;;;;;5032177;28;19987;-65
2023/04/04 00:21:18;;;;;;;;;;;0.40;1.00;;;;;;5031903;28;20340;-64
2023/04/04 00:23:44;;;;;;;;;;;0.40;9.70;;;;;;5032527;28;19940;-63
2023/04/04 00:26:11;;;;;;;;;;;0.40;41.10;;;;;;5030694;28;19929;-62
2023/04/04 00:28:39;;;;;;;;;;;0.40;99.90;;;;;;5032545;28;19933;-66
2023/04/04 00:31:06;;;;;;;;;;;0.40;99.90;;;;;;5027433;28;20387;-65
2023/04/04 00:33:32;;;;;;;;;;;0.30;99.90;;;;;;5032410;28;20364;-63
2023/04/04 00:35:59;;;;;;;;;;;0.30;99.90;;;;;;5027327;28;19932;-64
2023/04/04 00:38:28;;;;;;;;;;;0.30;99.90;;;;;;5032749;28;19929;-66
2023/04/04 00:40:55;;;;;;;;;;;0.30;1.00;;;;;;5030699;28;19987;-64
2023/04/04 00:43:22;;;;;;;;;;;0.30;1.00;;;;;;5032391;28;19979;-64
2023/04/04 00:45:51;;;;;;;;;;;0.30;8.40;;;;;;5027949;28;19929;-62
2023/04/04 00:48:18;;;;;;;;;;;0.30;99.90;;;;;;5032607;28;19926;-65
2023/04/04 00:50:44;;;;;;;;;;;0.20;99.90;;;;;;5027873;28;19925;-63
2023/04/04 00:53:11;;;;;;;;;;;0.30;1.00;;;;;;5029028;28;19925;-62
2023/04/04 00:55:38;;;;;;;;;;;0.20;1.00;;;;;;5027552;28;19936;-63
2023/04/04 00:58:04;;;;;;;;;;;0.20;99.90;;;;;;5032060;28;20370;-64
2023/04/04 01:00:33;;;;;;;;;;;0.20;1.00;;;;;;5025798;28;19933;-63
2023/04/04 01:03:01;;;;;;;;;;;0.20;1.00;;;;;;5036961;28;20292;-65
2023/04/04 01:05:27;;;;;;;;;;;0.10;99.90;;;;;;5037805;28;19931;-64
2023/04/04 01:07:55;;;;;;;;;;;0.00;1.00;;;;;;5041868;28;19932;-63
2023/04/04 01:10:21;;;;;;;;;;;-0.10;1.00;;;;;;5034597;28;20012;-66
2023/04/04 01:12:48;;;;;;;;;;;-0.10;99.90;;;;;;5028841;28;19925;-63
2023/04/04 01:15:14;;;;;;;;;;;-0.10;1.00;;;;;;5031180;28;19925;-65
2023/04/04 01:17:43;;;;;;;;;;;-0.20;1.00;;;;;;5034580;28;19932;-63
2023/04/04 01:20:12;;;;;;;;;;;-0.20;1.00;;;;;;5030167;28;19972;-63
2023/04/04 01:22:40;;;;;;;;;;;-0.10;1.00;;;;;;5031693;28;20357;-63
2023/04/04 01:25:07;;;;;;;;;;;-0.10;1.00;;;;;;5027613;28;20020;-65
2023/04/04 01:27:35;;;;;;;;;;;-0.10;1.00;;;;;;5030308;28;19925;-63
2023/04/04 01:30:02;;;;;;;;;;;-0.10;1.00;;;;;;5027406;28;19930;-63
2023/04/04 01:32:32;;;;;;;;;;;-0.10;1.00;;;;;;5028938;28;19995;-65
2023/04/04 01:35:02;;;;;;;;;;;-0.10;1.00;;;;;;5034562;28;20472;-63
2023/04/04 01:37:34;;;;;;;;;;;-0.10;1.00;;;;;;5029779;28;19925;-63
2023/04/04 01:40:05;;;;;;;;;;;-0.10;1.00;;;;;;5034737;28;19925;-63
2023/04/04 01:42:32;;;;;;;;;;;-0.10;1.00;;;;;;5032959;28;19925;-64
2023/04/04 01:44:59;;;;;;;;;;;-0.10;1.00;;;;;;5030973;28;19925;-63
2023/04/04 01:47:28;;;;;;;;;;;-0.10;1.00;;;;;;5033881;28;19929;-62
2023/04/04 01:49:54;;;;;;;;;;;-0.10;1.00;;;;;;5031941;28;19925;-63
2023/04/04 01:52:21;;;;;;;;;;;-0.10;1.00;;;;;;5033155;28;19929;-62
2023/04/04 01:54:47;;;;;;;;;;;-0.10;1.00;;;;;;5029868;28;19929;-65
2023/04/04 01:57:14;;;;;;;;;;;-0.10;1.00;;;;;;5031923;28;20268;-63
2023/04/04 01:59:40;;;;;;;;;;;-0.20;1.00;;;;;;5029921;28;20272;-63
2023/04/04 02:02:08;;;;;;;;;;;-0.20;1.00;;;;;;4963431;28;1920759;-63
2023/04/04 02:04:35;;;;;;;;;;;-0.20;1.00;;;;;;5030738;28;19925;-63
2023/04/04 02:07:01;;;;;;;;;;;-0.20;1.00;;;;;;5035069;28;19929;-63
2023/04/04 02:09:28;;;;;;;;;;;-0.30;1.00;;;;;;5032993;28;20303;-63
2023/04/04 02:11:54;;;;;;;;;;;-0.30;1.00;;;;;;5035323;28;19925;-63
2023/04/04 02:14:21;;;;;;;;;;;-0.30;1.00;;;;;;5032479;28;20400;-63
2023/04/04 02:16:48;;;;;;;;;;;-0.30;1.00;;;;;;5025787;28;19933;-63
2023/04/04 02:19:15;;;;;;;;;;;-0.40;1.00;;;;;;5032955;28;19946;-63
2023/04/04 02:21:42;;;;;;;;;;;-0.40;1.00;;;;;;5033213;28;20037;-64
2023/04/04 02:24:09;;;;;;;;;;;-0.50;1.00;;;;;;5033727;28;19925;-63
2023/04/04 02:26:36;;;;;;;;;;;-0.50;1.00;;;;;;5032076;28;19932;-63
2023/04/04 02:29:02;;;;;;;;;;;-0.50;1.00;;;;;;5029594;28;19925;-64
2023/04/04 02:31:29;;;;;;;;;;;-0.60;1.00;;;;;;5030905;28;19929;-63
2023/04/04 02:33:56;;;;;;;;;;;-0.60;1.00;;;;;;5034094;28;20273;-63
2023/04/04 02:36:24;;;;;;;;;;;-0.60;1.00;;;;;;5034179;28;20388;-64
2023/04/04 02:38:50;;;;;;;;;;;-0.60;1.00;;;;;;5032970;28;20410;-64
2023/04/04 02:41:17;;;;;;;;;;;-0.70;1.00;;;;;;5033442;28;19944;-64
2023/04/04 02:43:43;;;;;;;;;;;-0.70;1.00;;;;;;5030299;28;19932;-64
2023/04/04 02:46:10;;;;;;;;;;;-0.70;1.00;;;;;;5030227;28;19932;-63
2023/04/04 02:48:37;;;;;;;;;;;-0.70;1.00;;;;;;5030182;28;19925;-64
2023/04/04 02:51:03;;;;;;;;;;;-0.70;1.00;;;;;;5034767;28;19929;-62
2023/04/04 02:53:31;;;;;;;;;;;-0.70;1.00;;;;;;5030851;28;19925;-64
2023/04/04 02:55:58;;;;;;;;;;;-0.80;1.00;;;;;;5030297;28;20339;-63
2023/04/04 02:58:24;;;;;;;;;;;-0.80;1.00;;;;;;5030318;28;19925;-63
2023/04/04 03:00:53;;;;;;;;;;;-0.80;1.00;;;;;;5029712;28;20392;-64
2023/04/04 03:03:20;;;;;;;;;;;-0.80;1.00;;;;;;5031212;28;19932;-62
2023/04/04 03:05:48;;;;;;;;;;;-0.80;1.00;;;;;;5032810;28;19948;-63
2023/04/04 03:08:15;;;;;;;;;;;-0.90;1.00;;;;;;5035500;28;19929;-64
2023/04/04 03:10:44;;;;;;;;;;;-0.90;1.00;;;;;;5038481;28;20319;-64
2023/04/04 03:13:11;;;;;;;;;;;-1.00;1.00;;;;;;5031761;28;19930;-64
2023/04/04 03:15:39;;;;;;;;;;;-1.00;1.00;;;;;;5040188;28;19933;-66
2023/04/04 03:18:06;;;;;;;;;;;-1.00;1.00;;;;;;5043911;28;20392;-64
2023/04/04 03:20:32;;;;;;;;;;;-1.00;1.00;;;;;;5033780;28;19925;-62
2023/04/04 03:22:59;;;;;;;;;;;-1.00;1.00;;;;;;5032235;28;19973;-63
2023/04/04 03:25:25;;;;;;;;;;;-1.10;1.00;;;;;;5028166;28;20391;-64
2023/04/04 03:27:53;;;;;;;;;;;-1.10;1.00;;;;;;5033327;28;19933;-64
2023/04/04 03:30:20;;;;;;;;;;;-1.10;1.00;;;;;;5026195;28;19929;-64
2023/04/04 03:32:47;;;;;;;;;;;-1.10;1.00;;;;;;5033365;28;19925;-63
2023/04/04 03:35:15;;;;;;;;;;;-1.10;1.00;;;;;;5029162;28;19925;-63
2023/04/04 03:37:41;;;;;;;;;;;-1.10;1.00;;;;;;5029707;28;19987;-63
2023/04/04 03:40:09;;;;;;;;;;;-1.10;1.00;;;;;;5026474;28;19984;-66
2023/04/04 03:42:35;;;;;;;;;;;-1.20;1.00;;;;;;5033108;28;19926;-64
2023/04/04 03:45:03;;;;;;;;;;;-1.20;1.00;;;;;;5027400;28;19925;-63
2023/04/04 03:47:30;;;;;;;;;;;-1.20;2.40;;;;;;5033006;28;20503;-63
2023/04/04 03:49:56;;;;;;;;;;;-1.20;4.40;;;;;;5028563;28;19925;-64
2023/04/04 03:52:23;;;;;;;;;;;-1.20;6.30;;;;;;5033095;28;20027;-63
2023/04/04 03:54:49;;;;;;;;;;;-1.20;7.70;;;;;;5028671;28;19934;-64
2023/04/04 03:57:16;;;;;;;;;;;-1.30;8.50;;;;;;5032826;28;19933;-63
2023/04/04 03:59:42;;;;;;;;;;;-1.30;9.40;;;;;;5028997;28;19930;-64
2023/04/04 04:02:10;;;;;;;;;;;-1.30;11.70;;;;;;5029209;28;19925;-64
2023/04/04 04:04:37;;;;;;;;;;;-1.30;14.60;;;;;;5029022;28;19948;-63
2023/04/04 04:07:03;;;;;;;;;;;-1.30;16.80;;;;;;5032229;28;20265;-62
2023/04/04 04:09:30;;;;;;;;;;;-1.30;18.80;;;;;;5029966;28;19948;-63
2023/04/04 04:11:56;;;;;;;;;;;-1.30;19.00;;;;;;5031368;28;20493;-66
2023/04/04 04:14:23;;;;;;;;;;;-1.30;19.00;;;;;;5026648;28;20281;-64
2023/04/04 04:16:50;;;;;;;;;;;-1.30;19.70;;;;;;5030313;28;20416;-63
2023/04/04 04:19:18;;;;;;;;;;;-1.30;20.00;;;;;;5029887;28;19940;-63
2023/04/04 04:21:44;;;;;;;;;;;-1.30;19.00;;;;;;5029003;28;20261;-62
2023/04/04 04:24:11;;;;;;;;;;;-1.40;17.50;;;;;;5032436;28;19929;-65
2023/04/04 04:26:38;;;;;;;;;;;-1.40;17.70;;;;;;5029017;28;19930;-63
2023/04/04 04:29:04;;;;;;;;;;;-1.40;17.00;;;;;;5032152;28;20299;-63
2023/04/04 04:31:31;;;;;;;;;;;-1.50;17.00;;;;;;5028914;28;20025;-65
2023/04/04 04:33:58;;;;;;;;;;;-1.50;17.60;;;;;;5031271;28;20120;-63
2023/04/04 04:36:26;;;;;;;;;;;-1.50;17.80;;;;;;5027329;28;19932;-63
2023/04/04 04:38:52;;;;;;;;;;;-1.50;18.30;;;;;;5024325;28;19925;-63
2023/04/04 04:41:19;;;;;;;;;;;-1.60;19.30;;;;;;5029152;28;19929;-63
2023/04/04 04:43:45;;;;;;;;;;;-1.60;21.00;;;;;;5032309;28;19925;-66
2023/04/04 04:46:13;;;;;;;;;;;-1.60;23.10;;;;;;5027984;28;19925;-63
2023/04/04 04:48:40;;;;;;;;;;;-1.60;25.00;;;;;;5034693;28;19980;-64
2023/04/04 04:51:06;;;;;;;;;;;-1.60;26.40;;;;;;5026767;28;19929;-63
2023/04/04 04:53:34;;;;;;;;;;;-1.60;29.50;;;;;;5032449;28;19928;-63
2023/04/04 04:56:01;;;;;;;;;;;-1.60;31.00;;;;;;5027557;28;19925;-63
2023/04/04 04:58:28;;;;;;;;;;;-1.60;33.60;;;;;;5032378;28;19925;-63
2023/04/04 05:00:55;;;;;;;;;;;-1.60;35.90;;;;;;5027851;28;19925;-63
2023/04/04 05:03:21;;;;;;;;;;;-1.60;39.10;;;;;;5032345;28;19964;-64
2023/04/04 05:05:48;;;;;;;;;;;-1.60;41.10;;;;;;5026002;28;19925;-66
2023/04/04 05:08:14;;;;;;;;;;;-1.60;42.40;;;;;;5031613;28;20317;-63
2023/04/04 05:10:42;;;;;;;;;;;-1.60;42.60;;;;;;5028019;28;19929;-63
2023/04/04 05:13:09;;;;;;;;;;;-1.60;43.10;;;;;;5030616;28;19925;-63
2023/04/04 05:15:36;;;;;;;;;;;-1.60;44.00;;;;;;5024423;28;19925;-64
2023/04/04 05:18:02;;;;;;;;;;;-1.60;44.70;;;;;;5031935;28;19948;-64
2023/04/04 05:20:29;;;;;;;;;;;-1.60;46.30;;;;;;5026709;28;19925;-64
2023/04/04 05:22:55;;;;;;;;;;;-1.60;47.50;;;;;;5029298;28;19929;-63
2023/04/04 05:25:22;;;;;;;;;;;-1.60;48.60;;;;;;5025355;28;19932;-63
2023/04/04 05:27:50;;;;;;;;;;;-1.60;50.30;;;;;;5028758;28;19932;-64
2023/04/04 05:30:17;;;;;;;;;;;-1.60;52.20;;;;;;5026338;28;19932;-64
2023/04/04 05:32:44;;;;;;;;;;;-1.60;53.70;;;;;;5027668;28;19924;-66
2023/04/04 05:35:10;;;;;;;;;;;-1.60;55.80;;;;;;5025815;28;19940;-62
2023/04/04 05:37:38;;;;;;;;;;;-1.50;58.90;;;;;;5031044;28;20330;-64
2023/04/04 05:40:06;;;;;;;;;;;-1.50;61.60;;;;;;5026643;28;20371;-63
2023/04/04 05:42:32;;;;;;;;;;;-1.50;63.80;;;;;;5026863;28;19925;-61
2023/04/04 05:45:00;;;;;;;;;;;-1.40;65.50;;;;;;5025842;28;19941;-62
2023/04/04 05:47:27;;;;;;;;;;;-1.40;65.70;;;;;;5030878;28;19960;-61
2023/04/04 05:49:53;;;;;;;;;;;-1.30;66.80;;;;;;5026378;28;20315;-63
2023/04/04 05:52:20;;;;;;;;;;;-1.20;66.90;;;;;;5031068;28;19926;-62
2023/04/04 05:54:47;;;;;;;;;;;-1.20;65.10;;;;;;5030998;28;19925;-64
2023/04/04 05:57:13;;;;;;;;;;;-1.10;63.80;;;;;;5034825;28;20326;-63
2023/04/04 05:59:40;;;;;;;;;;;-1.10;61.00;;;;;;5029878;28;19925;-63
2023/04/04 06:02:07;;;;;;;;;;;-1.10;60.60;;;;;;5033903;28;19929;-64
2023/04/04 06:04:34;;;;;;;;;;;-1.00;62.10;;;;;;5032461;28;19925;-63
2023/04/04 06:07:00;;;;;;;;;;;-0.90;63.30;;;;;;5033724;28;19925;-59
2023/04/04 06:09:27;;;;;;;;;;;-0.90;64.60;;;;;;5033027;28;19925;-62
2023/04/04 06:11:54;;;;;;;;;;;-0.80;66.20;;;;;;5033622;28;19961;-61
2023/04/04 06:14:20;;;;;;;;;;;-0.70;64.80;;;;;;5030909;28;19926;-61
2023/04/04 06:16:47;;;;;;;;;;;-0.60;63.50;;;;;;5033843;28;20300;-63
2023/04/04 06:19:15;;;;;;;;;;;-0.50;63.80;;;;;;5031421;28;19968;-61
2023/04/04 06:21:41;;;;;;;;;;;-0.40;58.20;;;;;;5031056;28;19931;-61
2023/04/04 06:24:08;;;;;;;;;;;-0.30;51.30;;;;;;5022371;28;19931;-61
2023/04/04 06:26:35;;;;;;;;;;;-0.20;43.50;;;;;;5031011;28;19925;-58
2023/04/04 06:29:01;;;;;;;;;;;-0.10;36.30;;;;;;5031854;28;19925;-58
2023/04/04 06:31:28;;;;;;;;;;;0.00;26.20;;;;;;5031211;28;19929;-58
2023/04/04 06:33:55;;;;;;;;;;;0.00;18.10;;;;;;5029423;28;19925;-62
2023/04/04 06:36:23;;;;;;;;;;;0.10;12.60;;;;;;5033536;28;20284;-58
2023/04/04 06:38:50;;;;;;;;;;;0.10;9.60;;;;;;5028573;28;20016;-61
2023/04/04 06:41:17;;;;;;;;;;;0.20;1.00;;;;;;5040064;28;19932;-63
2023/04/04 06:43:45;;;;;;;;;;;0.40;1.00;;;;;;5034946;28;19971;-62
2023/04/04 06:46:12;;;;;;;;;;;0.50;1.00;;;;;;5027574;28;19929;-62
2023/04/04 06:48:38;;;;;;;;;;;0.60;1.00;;;;;;5036092;28;20008;-63
2023/04/04 06:51:05;;;;;;;;;;;0.60;1.00;;;;;;5038269;28;19932;-62
2023/04/04 06:53:34;;;;;;;;;;;0.80;1.00;;;;;;5032322;28;19979;-59
2023/04/04 06:56:01;;;;;;;;;;;1.00;1.00;;;;;;5029240;28;19990;-62
2023/04/04 06:58:27;;;;;;;;;;;1.00;1.00;;;;;;5030149;28;19932;-62
2023/04/04 07:00:55;;;;;;;;;;;1.20;1.00;;;;;;5028985;28;19925;-61
2023/04/04 07:03:22;;;;;;;;;;;1.30;1.00;;;;;;5027425;28;20547;-62
2023/04/04 07:05:49;;;;;;;;;;;1.40;1.00;;;;;;5030285;28;19936;-59
2023/04/04 07:08:15;;;;;;;;;;;1.60;99.90;;;;;;5027867;28;19926;-59
2023/04/04 07:10:43;;;;;;;;;;;1.70;99.90;;;;;;5032315;28;19932;-61
2023/04/04 07:13:10;;;;;;;;;;;1.70;1.00;;;;;;5030707;28;20308;-62
2023/04/04 07:15:37;;;;;;;;;;;1.70;1.00;;;;;;5028461;28;20014;-63
2023/04/04 07:18:03;;;;;;;;;;;1.70;99.90;;;;;;5028185;28;19933;-61
2023/04/04 07:20:31;;;;;;;;;;;1.80;99.90;;;;;;5033121;28;19929;-61
2023/04/04 07:22:57;;;;;;;;;;;1.90;1.00;;;;;;5027673;28;20391;-63
2023/04/04 07:25:24;;;;;;;;;;;2.10;99.90;;;;;;5028360;28;19929;-62
2023/04/04 07:27:54;;;;;;;;;;;2.20;99.90;;;;;;5026779;28;20701;-61
2023/04/04 07:30:25;;;;;;;;;;;2.30;99.90;;;;;;5028952;28;19925;-61
2023/04/04 07:32:56;;;;;;;;;;;2.50;1.00;;;;;;5025211;28;19932;-62
2023/04/04 07:35:23;;;;;;;;;;;2.60;99.90;;;;;;5032595;28;19932;-61
2023/04/04 07:37:50;;;;;;;;;;;2.60;43.90;;;;;;5026531;28;19995;-65
2023/04/04 07:40:17;;;;;;;;;;;2.70;1.00;;;;;;5034020;28;20050;-62
2023/04/04 07:42:44;;;;;;;;;;;2.80;99.90;;;;;;5027526;28;19933;-65
2023/04/04 07:45:13;;;;;;;;;;;2.90;99.90;;;;;;5033840;28;20311;-63
2023/04/04 07:47:42;;;;;;;;;;;3.00;53.30;;;;;;5032007;28;19925;-63
2023/04/04 07:50:09;;;;;;;;;;;3.10;64.20;;;;;;5028345;28;19931;-62
2023/04/04 07:52:36;;;;;;;;;;;3.20;1.00;;;;;;5028078;28;19925;-62
2023/04/04 07:55:04;;;;;;;;;;;3.30;1.00;;;;;;5030234;28;19925;-60
2023/04/04 07:57:31;;;;;;;;;;;3.40;1.00;;;;;;5031955;28;20453;-62
2023/04/04 07:59:58;;;;;;;;;;;3.60;1.00;;;;;;5028166;28;20308;-61
2023/04/04 08:02:26;;;;;;;;;;;3.60;1.00;;;;;;5032182;28;19925;-61
2023/04/04 08:04:52;;;;;;;;;;;3.70;99.90;;;;;;5029120;28;20458;-62
2023/04/04 08:07:19;;;;;;;;;;;3.80;99.90;;;;;;5032065;28;19929;-61
2023/04/04 08:09:46;;;;;;;;;;;4.00;99.90;;;;;;5029393;28;19931;-61
2023/04/04 08:12:12;;;;;;;;;;;4.00;99.90;;;;;;5032323;28;19925;-59
2023/04/04 08:14:39;;;;;;;;;;;4.00;99.90;;;;;;5024560;28;19935;-61
2023/04/04 08:17:05;;;;;;;;;;;4.10;99.90;;;;;;5032457;28;19925;-61
2023/04/04 08:19:33;;;;;;;;;;;4.10;99.90;;;;;;5021752;28;19925;-59
2023/04/04 08:22:00;;;;;;;;;;;4.10;99.90;;;;;;5031552;28;20415;-61
2023/04/04 08:24:27;;;;;;;;;;;4.10;99.90;;;;;;5024595;28;20411;-62
2023/04/04 08:26:53;;;;;;;;;;;4.10;99.90;;;;;;5032873;28;19925;-60
2023/04/04 08:29:20;;;;;;;;;;;4.30;99.90;;;;;;5031513;28;20360;-62
2023/04/04 08:31:46;;;;;;;;;;;4.40;99.90;;;;;;5028518;28;20402;-63
2023/04/04 08:34:13;;;;;;;;;;;4.50;99.90;;;;;;5030381;28;19929;-62
2023/04/04 08:36:41;;;;;;;;;;;4.70;99.90;;;;;;5025734;28;19929;-63
2023/04/04 08:39:07;;;;;;;;;;;4.90;99.90;;;;;;5029353;28;19983;-62
2023/04/04 08:41:34;;;;;;;;;;;5.00;99.90;;;;;;5030826;28;19956;-61
2023/04/04 08:44:03;;;;;;;;;;;4.50;99.90;;;;;;5030493;28;20408;-60
2023/04/04 08:46:29;;;;;;;;;;;4.20;99.90;;;;;;5027309;28;20359;-64
2023/04/04 08:48:56;;;;;;;;;;;4.30;99.90;;;;;;5031271;28;19932;-61
2023/04/04 08:51:25;;;;;;;;;;;4.60;99.90;;;;;;5025423;28;19925;-62
2023/04/04 08:53:53;;;;;;;;;;;4.90;99.90;;;;;;5031970;28;20504;-60
2023/04/04 08:56:20;;;;;;;;;;;4.90;99.90;;;;;;5025631;28;19979;-60
2023/04/04 08:58:47;;;;;;;;;;;4.80;99.90;;;;;;5031441;28;19971;-61
2023/04/04 09:01:15;;;;;;;;;;;4.60;99.90;;;;;;5025729;28;20000;-62
2023/04/04 09:03:42;;;;;;;;;;;4.70;99.90;;;;;;5030967;28;19979;-62
2023/04/04 09:06:09;;;;;;;;;;;4.70;99.90;;;;;;5020907;28;19925;-59
2023/04/04 09:08:36;;;;;;;;;;;4.80;99.90;;;;;;5030837;28;19929;-69
2023/04/04 09:11:04;;;;;;;;;;;5.10;99.90;;;;;;5026321;28;20032;-58
2023/04/04 09:13:30;;;;;;;;;;;5.00;99.90;;;;;;5030578;28;20335;-59
2023/04/04 09:15:58;;;;;;;;;;;5.10;99.90;;;;;;5021048;28;19925;-60
2023/04/04 09:18:24;;;;;;;;;;;5.10;99.90;;;;;;5029167;28;19925;-62
2023/04/04 09:20:51;;;;;;;;;;;5.10;99.90;;;;;;5029698;28;19929;-61
2023/04/04 09:23:19;;;;;;;;;;;5.20;99.90;;;;;;5030038;28;19931;-66
2023/04/04 09:25:46;;;;;;;;;;;5.10;99.90;;;;;;5024474;28;19933;-63
2023/04/04 09:28:16;;;;;;;;;;;5.30;99.90;;;;;;5031536;28;19932;-63
2023/04/04 09:30:43;;;;;;;;;;;5.30;99.90;;;;;;5034289;28;19983;-60
2023/04/04 09:33:10;;;;;;;;;;;5.50;99.90;;;;;;5027539;28;20303;-64
2023/04/04 09:35:38;;;;;;;;;;;5.60;99.90;;;;;;5034949;28;20384;-63
2023/04/04 09:38:05;;;;;;;;;;;5.60;99.90;;;;;;5030353;28;20369;-63
2023/04/04 09:40:32;;;;;;;;;;;5.60;99.90;;;;;;5034709;28;19951;-62
2023/04/04 09:43:02;;;;;;;;;;;5.80;99.90;;;;;;5027214;28;19932;-63
2023/04/04 09:45:31;;;;;;;;;;;5.90;99.90;;;;;;5030206;28;19932;-63
2023/04/04 09:47:58;;;;;;;;;;;6.00;99.90;;;;;;5030823;28;20000;-63
2023/04/04 09:50:27;;;;;;;;;;;5.90;99.90;;;;;;5029357;28;19932;-63
2023/04/04 09:52:56;;;;;;;;;;;5.90;99.90;;;;;;5031360;28;19980;-64
2023/04/04 09:55:31;;;;;;;;;;;5.60;99.90;;;;;;5030255;28;19925;-63
2023/04/04 09:57:57;;;;;;;;;;;5.70;99.90;;;;;;5032727;28;19925;-64
2023/04/04 10:00:28;;;;;;;;;;;5.50;99.90;;;;;;5035402;28;19936;-64
2023/04/04 10:02:57;;;;;;;;;;;5.50;99.90;;;;;;5039150;28;19925;-65
2023/04/04 10:05:23;;;;;;;;;;;5.50;99.90;;;;;;5031138;28;19995;-64
2023/04/04 10:07:51;;;;;;;;;;;5.70;99.90;;;;;;5031010;28;19933;-65
2023/04/04 10:10:17;;;;;;;;;;;5.70;99.90;;;;;;5030369;28;20534;-64
2023/04/04 10:12:45;;;;;;;;;;;5.70;99.90;;;;;;5034232;28;19936;-65
2023/04/04 10:15:13;;;;;;;;;;;5.90;99.90;;;;;;5029147;28;19936;-67
2023/04/04 10:17:40;;;;;;;;;;;5.70;99.90;;;;;;5034396;28;20423;-66
2023/04/04 10:20:09;;;;;;;;;;;5.70;99.90;;;;;;5026549;28;20008;-64
2023/04/04 10:22:37;;;;;;;;;;;5.70;99.90;;;;;;5034814;28;19925;-64
2023/04/04 10:25:04;;;;;;;;;;;5.90;99.90;;;;;;5027103;28;19925;-64
2023/04/04 10:27:31;;;;;;;;;;;6.20;99.90;;;;;;5034630;28;19994;-65
2023/04/04 10:29:57;;;;;;;;;;;6.40;99.90;;;;;;5027933;28;19925;-65
2023/04/04 10:32:37;;;;;;;;;;;6.40;99.90;;;;;;5035239;28;19925;-65
2023/04/04 10:35:06;;;;;;;;;;;6.50;99.90;;;;;;5025862;28;19965;-67
2023/04/04 10:37:37;;;;;;;;;;;6.50;99.90;;;;;;5020622;28;20430;-67
2023/04/04 10:40:05;;;;;;;;;;;6.20;99.90;;;;;;5033764;28;20279;-67
2023/04/04 10:42:35;;;;;;;;;;;6.50;99.90;;;;;;5027367;28;20308;-67
2023/04/04 10:45:02;;;;;;;;;;;6.40;99.90;;;;;;5026841;28;19929;-64
2023/04/04 10:47:29;;;;;;;;;;;6.30;99.90;;;;;;5033279;28;19932;-62
2023/04/04 10:49:56;;;;;;;;;;;6.10;99.90;;;;;;5028755;28;19936;-64
2023/04/04 10:52:24;;;;;;;;;;;6.00;99.90;;;;;;5033732;28;19936;-65
2023/04/04 10:54:54;;;;;;;;;;;6.00;99.90;;;;;;5029780;28;19925;-63
2023/04/04 10:57:22;;;;;;;;;;;6.10;99.90;;;;;;5034620;28;19926;-63
2023/04/04 10:59:58;;;;;;;;;;;5.90;99.90;;;;;;5029262;28;20013;-61
2023/04/04 11:02:48;;;;;;;;;;;6.00;99.90;;;;;;5028872;28;19933;-66
2023/04/04 11:05:17;;;;;;;;;;;6.20;99.90;;;;;;5006419;28;19926;-64
2023/04/04 11:07:45;;;;;;;;;;;6.40;99.90;;;;;;5032606;28;20012;-62
2023/04/04 11:10:20;;;;;;;;;;;6.60;99.90;;;;;;5031130;28;19925;-63
2023/04/04 11:12:53;;;;;;;;;;;6.40;99.90;;;;;;5026872;28;19925;-64
2023/04/04 11:15:21;;;;;;;;;;;6.40;99.90;;;;;;5028628;28;20466;-61
2023/04/04 11:17:52;;;;;;;;;;;6.60;99.90;;;;;;5033005;28;19932;-64
2023/04/04 11:20:21;;;;;;;;;;;6.70;99.90;;;;;;5027202;28;19925;-64
2023/04/04 11:22:49;;;;;;;;;;;6.60;99.90;;;;;;5033364;28;19925;-63
2023/04/04 11:25:30;;;;;;;;;;;6.60;99.90;;;;;;5028163;28;19925;-64
2023/04/04 11:27:58;;;;;;;;;;;6.90;99.90;;;;;;5029505;28;20284;-65
2023/04/04 11:30:27;;;;;;;;;;;6.80;99.90;;;;;;5028509;28;19932;-64
2023/04/04 11:32:57;;;;;;;;;;;7.10;99.90;;;;;;5032835;28;19975;-64
2023/04/04 11:35:24;;;;;;;;;;;7.20;99.90;;;;;;5026906;28;19932;-65
2023/04/04 11:38:00;;;;;;;;;;;7.20;99.90;;;;;;5032517;28;19926;-65
2023/04/04 11:40:37;;;;;;;;;;;7.00;99.90;;;;;;5027675;28;19972;-63
2023/04/04 11:43:08;;;;;;;;;;;7.20;99.90;;;;;;5028725;28;19933;-62
2023/04/04 11:45:35;;;;;;;;;;;7.30;99.90;;;;;;5018992;28;19937;-62
2023/04/04 11:48:03;;;;;;;;;;;7.20;99.90;;;;;;5027365;28;20012;-64
2023/04/04 11:50:34;;;;;;;;;;;7.20;99.90;;;;;;5027141;28;19925;-63
2023/04/04 11:53:04;;;;;;;;;;;7.50;99.90;;;;;;5028931;28;19960;-63
2023/04/04 11:55:31;;;;;;;;;;;7.30;99.90;;;;;;5026986;28;19936;-58
2023/04/04 11:58:05;;;;;;;;;;;7.30;99.90;;;;;;5028785;28;19924;-61
2023/04/04 12:00:34;;;;;;;;;;;7.40;99.90;;;;;;5024068;28;19925;-63
2023/04/04 12:03:01;;;;;;;;;;;7.30;99.90;;;;;;5032437;28;19932;-62
2023/04/04 12:05:28;;;;;;;;;;;7.30;99.90;;;;;;5026353;28;19926;-63
2023/04/04 12:07:54;;;;;;;;;;;7.20;99.90;;;;;;5029232;28;19925;-62
2023/04/04 12:10:22;;;;;;;;;;;7.30;99.90;;;;;;5026590;28;19925;-62
2023/04/04 12:12:48;;;;;;;;;;;7.30;99.90;;;;;;5032163;28;19976;-63
2023/04/04 12:15:15;;;;;;;;;;;7.50;99.90;;;;;;5024644;28;19929;-65
2023/04/04 12:17:44;;;;;;;;;;;7.50;99.90;;;;;;5032009;28;19925;-65
2023/04/04 12:20:11;;;;;;;;;;;7.60;99.90;;;;;;5018762;28;20020;-64
2023/04/04 12:22:38;;;;;;;;;;;7.80;99.90;;;;;;5031895;28;20028;-64
2023/04/04 12:25:05;;;;;;;;;;;8.10;99.90;;;;;;5023152;28;19925;-63
2023/04/04 12:27:32;;;;;;;;;;;8.10;99.90;;;;;;5030759;28;19992;-64
2023/04/04 12:29:59;;;;;;;;;;;8.20;99.90;;;;;;5027133;28;20411;-64
2023/04/04 12:32:26;;;;;;;;;;;8.10;99.90;;;;;;5032014;28;19932;-64
2023/04/04 12:34:59;;;;;;;;;;;7.60;99.90;;;;;;5028026;28;19925;-64
2023/04/04 12:37:28;;;;;;;;;;;7.80;99.90;;;;;;5028527;28;19932;-64
2023/04/04 12:39:55;;;;;;;;;;;7.90;99.90;;;;;;5029646;28;20512;-65
2023/04/04 12:42:22;;;;;;;;;;;8.10;99.90;;;;;;5027719;28;19955;-65
2023/04/04 12:44:50;;;;;;;;;;;8.10;99.90;;;;;;5027292;28;20392;-65
2023/04/04 12:47:19;;;;;;;;;;;7.80;99.90;;;;;;5022108;28;20020;-65
2023/04/04 12:49:47;;;;;;;;;;;7.80;99.90;;;;;;5026448;28;19926;-63
2023/04/04 12:52:18;;;;;;;;;;;7.70;99.90;;;;;;5034345;28;19957;-61
2023/04/04 12:54:45;;;;;;;;;;;7.90;99.90;;;;;;5034675;28;19968;-60
2023/04/04 12:57:17;;;;;;;;;;;8.20;99.90;;;;;;5035188;28;19925;-60
2023/04/04 12:59:45;;;;;;;;;;;8.20;99.90;;;;;;5029052;28;19925;-60
2023/04/04 13:02:15;;;;;;;;;;;8.20;99.90;;;;;;5030576;28;19925;-59
2023/04/04 13:04:45;;;;;;;;;;;8.00;99.90;;;;;;5028432;28;19929;-61
2023/04/04 13:07:26;;;;;;;;;;;8.00;99.90;;;;;;5037413;28;19929;-59
2023/04/04 13:09:53;;;;;;;;;;;8.10;99.90;;;;;;5034629;28;19925;-62
2023/04/04 13:12:20;;;;;;;;;;;8.10;99.90;;;;;;5036657;28;19932;-61
2023/04/04 13:14:56;;;;;;;;;;;8.10;99.90;;;;;;5033427;28;20008;-63
2023/04/04 13:17:23;;;;;;;;;;;7.80;99.90;;;;;;5029094;28;20292;-63
2023/04/04 13:19:50;;;;;;;;;;;8.10;99.90;;;;;;5032026;28;19933;-64
2023/04/04 13:22:16;;;;;;;;;;;8.30;99.90;;;;;;5035660;28;19979;-64
2023/04/04 13:24:44;;;;;;;;;;;8.20;99.90;;;;;;5033268;28;19934;-64
2023/04/04 13:27:11;;;;;;;;;;;8.20;99.90;;;;;;5035234;28;20384;-64
2023/04/04 13:29:37;;;;;;;;;;;8.20;99.90;;;;;;5032294;28;19925;-64
2023/04/04 13:32:04;;;;;;;;;;;8.20;99.90;;;;;;5034725;28;19929;-64
2023/04/04 13:34:31;;;;;;;;;;;8.30;99.90;;;;;;5033352;28;19932;-64
2023/04/04 13:36:58;;;;;;;;;;;8.20;99.90;;;;;;5033587;28;19976;-66
2023/04/04 13:39:24;;;;;;;;;;;8.30;99.90;;;;;;5031535;28;20299;-65
2023/04/04 13:41:52;;;;;;;;;;;8.40;99.90;;;;;;5036348;28;19925;-63
2023/04/04 13:44:19;;;;;;;;;;;8.30;99.90;;;;;;5031685;28;19948;-62
2023/04/04 13:46:45;;;;;;;;;;;8.40;99.90;;;;;;5031588;28;20273;-63
2023/04/04 13:49:12;;;;;;;;;;;8.40;99.90;;;;;;5030782;28;20331;-63
2023/04/04 13:51:38;;;;;;;;;;;8.70;99.90;;;;;;5034752;28;20288;-63
2023/04/04 13:54:05;;;;;;;;;;;8.70;99.90;;;;;;5031876;28;19952;-63
2023/04/04 13:56:31;;;;;;;;;;;8.50;99.90;;;;;;5033257;28;20399;-63
2023/04/04 13:59:00;;;;;;;;;;;8.50;99.90;;;;;;5031744;28;19925;-63
2023/04/04 14:01:26;;;;;;;;;;;8.60;99.90;;;;;;5031173;28;19925;-62
2023/04/04 14:03:53;;;;;;;;;;;8.80;99.90;;;;;;5033054;28;19925;-64
2023/04/04 14:06:19;;;;;;;;;;;8.70;99.90;;;;;;5033033;28;19925;-64
2023/04/04 14:08:46;;;;;;;;;;;8.30;99.90;;;;;;5034054;28;19931;-63
2023/04/04 14:11:13;;;;;;;;;;;8.30;99.90;;;;;;5031283;28;19925;-63
2023/04/04 14:13:39;;;;;;;;;;;8.20;99.90;;;;;;5034455;28;19956;-64
2023/04/04 14:16:08;;;;;;;;;;;8.30;99.90;;;;;;5028575;28;19925;-64
2023/04/04 14:18:35;;;;;;;;;;;8.40;99.90;;;;;;5034941;28;19936;-64
2023/04/04 14:21:01;;;;;;;;;;;8.40;99.90;;;;;;5022875;28;19925;-63
2023/04/04 14:23:29;;;;;;;;;;;8.50;99.90;;;;;;5035176;28;19932;-64
2023/04/04 14:25:55;;;;;;;;;;;8.50;99.90;;;;;;5029932;28;19929;-63
2023/04/04 14:28:22;;;;;;;;;;;8.40;99.90;;;;;;5034483;28;19932;-62
2023/04/04 14:30:49;;;;;;;;;;;8.40;99.90;;;;;;5029822;28;19936;-61